<?xml version="1.0" encoding="utf-8"?>
<gpx xmlns:xsi="http://www.w3.org/2001/XMLSchema-instance" xmlns:xsd="http://www.w3.org/2001/XMLSchema" version="1.1" creator="Shapelink.com" xmlns="http://www.topografix.com/GPX/1/1" xmlns:gpxtpx="http://www.garmin.com/xmlschemas/TrackPointExtension/v1">
  <metadata>
    <name>Övrigt 2.88 km, 2020-06-18</name>
    <desc></desc>
    <author><name>Marian Moron</name></author> 
    <time>2020-06-18T20:32:24Z</time>
  </metadata>
  <trk>
    <name>Övrigt 2.88 km, 2020-06-18</name>
    <trkseg>
      <trkpt lat="51.228470939024" lon="4.449238919052">
        <ele>2.6</ele>
        <time>2020-06-18T20:32:24Z</time>
      </trkpt>
      <trkpt lat="51.228422743099" lon="4.449305471338">
        <ele>2.6</ele>
        <time>2020-06-18T20:32:29Z</time>
      </trkpt>
      <trkpt lat="51.228466328979" lon="4.449295580696">
        <ele>2.6</ele>
        <time>2020-06-18T20:32:33Z</time>
      </trkpt>
      <trkpt lat="51.228711751011" lon="4.449012943028">
        <ele>0</ele>
        <time>2020-06-18T20:32:59Z</time>
      </trkpt>
      <trkpt lat="51.228735807064" lon="4.448982768188">
        <ele>0</ele>
        <time>2020-06-18T20:33:02Z</time>
      </trkpt>
      <trkpt lat="51.22886857636" lon="4.448739944545">
        <ele>0</ele>
        <time>2020-06-18T20:33:50Z</time>
      </trkpt>
      <trkpt lat="51.228931105334" lon="4.448630979845">
        <ele>0</ele>
        <time>2020-06-18T20:34:00Z</time>
      </trkpt>
      <trkpt lat="51.229019031465" lon="4.448533833624">
        <ele>0</ele>
        <time>2020-06-18T20:34:13Z</time>
      </trkpt>
      <trkpt lat="51.229030933763" lon="4.448557051487">
        <ele>0</ele>
        <time>2020-06-18T20:34:17Z</time>
      </trkpt>
      <trkpt lat="51.229076279842" lon="4.448618071719">
        <ele>0</ele>
        <time>2020-06-18T20:34:26Z</time>
      </trkpt>
      <trkpt lat="51.229172755511" lon="4.44870683604">
        <ele>0</ele>
        <time>2020-06-18T20:34:45Z</time>
      </trkpt>
      <trkpt lat="51.229205193464" lon="4.448788056651">
        <ele>0</ele>
        <time>2020-06-18T20:34:51Z</time>
      </trkpt>
      <trkpt lat="51.229343243357" lon="4.449026354068">
        <ele>0</ele>
        <time>2020-06-18T20:35:08Z</time>
      </trkpt>
      <trkpt lat="51.229404682684" lon="4.44925333592">
        <ele>0</ele>
        <time>2020-06-18T20:35:24Z</time>
      </trkpt>
      <trkpt lat="51.229404850322" lon="4.449336232911">
        <ele>0</ele>
        <time>2020-06-18T20:35:30Z</time>
      </trkpt>
      <trkpt lat="51.229471067332" lon="4.449605208082">
        <ele>0</ele>
        <time>2020-06-18T20:35:48Z</time>
      </trkpt>
      <trkpt lat="51.229488334046" lon="4.449688021254">
        <ele>0</ele>
        <time>2020-06-18T20:35:54Z</time>
      </trkpt>
      <trkpt lat="51.229514653212" lon="4.449799332886">
        <ele>0</ele>
        <time>2020-06-18T20:36:03Z</time>
      </trkpt>
      <trkpt lat="51.229546588251" lon="4.44994903362">
        <ele>0</ele>
        <time>2020-06-18T20:36:14Z</time>
      </trkpt>
      <trkpt lat="51.229538373989" lon="4.450005611445">
        <ele>0</ele>
        <time>2020-06-18T20:36:18Z</time>
      </trkpt>
      <trkpt lat="51.229552036486" lon="4.450078450156">
        <ele>0.6</ele>
        <time>2020-06-18T20:36:23Z</time>
      </trkpt>
      <trkpt lat="51.229581624593" lon="4.450201077353">
        <ele>0.8</ele>
        <time>2020-06-18T20:36:32Z</time>
      </trkpt>
      <trkpt lat="51.229590677045" lon="4.450279364299">
        <ele>0.4</ele>
        <time>2020-06-18T20:36:38Z</time>
      </trkpt>
      <trkpt lat="51.229686230705" lon="4.45099174198">
        <ele>0</ele>
        <time>2020-06-18T20:37:27Z</time>
      </trkpt>
      <trkpt lat="51.229666868516" lon="4.451267003576">
        <ele>0</ele>
        <time>2020-06-18T20:37:47Z</time>
      </trkpt>
      <trkpt lat="51.229792848473" lon="4.451742927858">
        <ele>0</ele>
        <time>2020-06-18T20:38:23Z</time>
      </trkpt>
      <trkpt lat="51.229828052453" lon="4.451826160125">
        <ele>0.4</ele>
        <time>2020-06-18T20:38:27Z</time>
      </trkpt>
      <trkpt lat="51.22986183151" lon="4.451967227502">
        <ele>5.8</ele>
        <time>2020-06-18T20:38:40Z</time>
      </trkpt>
      <trkpt lat="51.22989200635" lon="4.452143917954">
        <ele>11.4</ele>
        <time>2020-06-18T20:38:53Z</time>
      </trkpt>
      <trkpt lat="51.230028966596" lon="4.452616070381">
        <ele>19</ele>
        <time>2020-06-18T20:39:26Z</time>
      </trkpt>
      <trkpt lat="51.230171207439" lon="4.453302883267">
        <ele>14.2</ele>
        <time>2020-06-18T20:40:12Z</time>
      </trkpt>
      <trkpt lat="51.230184450841" lon="4.453841085066">
        <ele>2</ele>
        <time>2020-06-18T20:40:49Z</time>
      </trkpt>
      <trkpt lat="51.230258882113" lon="4.454091033324">
        <ele>3</ele>
        <time>2020-06-18T20:41:08Z</time>
      </trkpt>
      <trkpt lat="51.23028008832" lon="4.454164710225">
        <ele>4.2</ele>
        <time>2020-06-18T20:41:13Z</time>
      </trkpt>
      <trkpt lat="51.230309257332" lon="4.454261353532">
        <ele>5</ele>
        <time>2020-06-18T20:41:19Z</time>
      </trkpt>
      <trkpt lat="51.230318896517" lon="4.454293456209">
        <ele>5.6</ele>
        <time>2020-06-18T20:41:21Z</time>
      </trkpt>
      <trkpt lat="51.230320740535" lon="4.454324133963">
        <ele>5.8</ele>
        <time>2020-06-18T20:41:23Z</time>
      </trkpt>
      <trkpt lat="51.230324428571" lon="4.454363445074">
        <ele>6</ele>
        <time>2020-06-18T20:41:26Z</time>
      </trkpt>
      <trkpt lat="51.230289895143" lon="4.454609286201">
        <ele>5</ele>
        <time>2020-06-18T20:41:43Z</time>
      </trkpt>
      <trkpt lat="51.230283524899" lon="4.454672988641">
        <ele>4</ele>
        <time>2020-06-18T20:41:47Z</time>
      </trkpt>
      <trkpt lat="51.230232646766" lon="4.454865101789">
        <ele>2.8</ele>
        <time>2020-06-18T20:42:01Z</time>
      </trkpt>
      <trkpt lat="51.23038989121" lon="4.455302301693">
        <ele>0.4</ele>
        <time>2020-06-18T20:42:39Z</time>
      </trkpt>
      <trkpt lat="51.230773446954" lon="4.455614695106">
        <ele>2.6</ele>
        <time>2020-06-18T20:43:20Z</time>
      </trkpt>
      <trkpt lat="51.231020629185" lon="4.455995820099">
        <ele>0</ele>
        <time>2020-06-18T20:43:59Z</time>
      </trkpt>
      <trkpt lat="51.230988694146" lon="4.456082824221">
        <ele>0</ele>
        <time>2020-06-18T20:44:08Z</time>
      </trkpt>
      <trkpt lat="51.230917364177" lon="4.456138731494">
        <ele>0</ele>
        <time>2020-06-18T20:44:16Z</time>
      </trkpt>
      <trkpt lat="51.230496592797" lon="4.456387254829">
        <ele>0.4</ele>
        <time>2020-06-18T20:45:06Z</time>
      </trkpt>
      <trkpt lat="51.230389723572" lon="4.45640896395">
        <ele>0.8</ele>
        <time>2020-06-18T20:45:16Z</time>
      </trkpt>
      <trkpt lat="51.230015304099" lon="4.456587330782">
        <ele>2.8</ele>
        <time>2020-06-18T20:45:53Z</time>
      </trkpt>
      <trkpt lat="51.229842217864" lon="4.457031320025">
        <ele>2.6</ele>
        <time>2020-06-18T20:46:34Z</time>
      </trkpt>
      <trkpt lat="51.229852862877" lon="4.457307587449">
        <ele>2</ele>
        <time>2020-06-18T20:46:52Z</time>
      </trkpt>
      <trkpt lat="51.229858227293" lon="4.457546136323">
        <ele>5.2</ele>
        <time>2020-06-18T20:47:07Z</time>
      </trkpt>
      <trkpt lat="51.229889827056" lon="4.457691059374">
        <ele>3.8</ele>
        <time>2020-06-18T20:47:15Z</time>
      </trkpt>
      <trkpt lat="51.229841882588" lon="4.457879903581">
        <ele>2</ele>
        <time>2020-06-18T20:47:27Z</time>
      </trkpt>
      <trkpt lat="51.229262777117" lon="4.45808282938">
        <ele>0</ele>
        <time>2020-06-18T20:51:44Z</time>
      </trkpt>
      <trkpt lat="51.229227070223" lon="4.458102778302">
        <ele>0.2</ele>
        <time>2020-06-18T20:51:47Z</time>
      </trkpt>
      <trkpt lat="51.229116932057" lon="4.458104706139">
        <ele>0</ele>
        <time>2020-06-18T20:51:57Z</time>
      </trkpt>
      <trkpt lat="51.228662549258" lon="4.458200595075">
        <ele>0.4</ele>
        <time>2020-06-18T20:52:29Z</time>
      </trkpt>
      <trkpt lat="51.228528857953" lon="4.458488597159">
        <ele>10.4</ele>
        <time>2020-06-18T20:53:19Z</time>
      </trkpt>
      <trkpt lat="51.228597254257" lon="4.458873996921">
        <ele>10.8</ele>
        <time>2020-06-18T20:53:51Z</time>
      </trkpt>
      <trkpt lat="51.228520895148" lon="4.459178846624">
        <ele>7.8</ele>
        <time>2020-06-18T20:54:14Z</time>
      </trkpt>
      <trkpt lat="51.228403464729" lon="4.459849650081">
        <ele>0</ele>
        <time>2020-06-18T20:54:50Z</time>
      </trkpt>
      <trkpt lat="51.228365159446" lon="4.460251729824">
        <ele>1.8</ele>
        <time>2020-06-18T20:55:11Z</time>
      </trkpt>
      <trkpt lat="51.228279831704" lon="4.460342254344">
        <ele>0</ele>
        <time>2020-06-18T20:55:19Z</time>
      </trkpt>
      <trkpt lat="51.228256110927" lon="4.460378883247">
        <ele>0</ele>
        <time>2020-06-18T20:55:22Z</time>
      </trkpt>
      <trkpt lat="51.228310006544" lon="4.46055046074">
        <ele>0</ele>
        <time>2020-06-18T20:55:45Z</time>
      </trkpt>
      <trkpt lat="51.22862550126" lon="4.46104750741">
        <ele>17</ele>
        <time>2020-06-18T20:56:43Z</time>
      </trkpt>
      <trkpt lat="51.228650311684" lon="4.461069551807">
        <ele>16.2</ele>
        <time>2020-06-18T20:56:45Z</time>
      </trkpt>
      <trkpt lat="51.22908399119" lon="4.461221767111">
        <ele>6.8</ele>
        <time>2020-06-18T20:57:23Z</time>
      </trkpt>
      <trkpt lat="51.229444329071" lon="4.461079023354">
        <ele>4.6</ele>
        <time>2020-06-18T20:57:59Z</time>
      </trkpt>
      <trkpt lat="51.229661839376" lon="4.461092182937">
        <ele>0</ele>
        <time>2020-06-18T20:58:22Z</time>
      </trkpt>
      <trkpt lat="51.229800308364" lon="4.461256635815">
        <ele>0</ele>
        <time>2020-06-18T20:58:45Z</time>
      </trkpt>
      <trkpt lat="51.229825537883" lon="4.46133416839">
        <ele>0</ele>
        <time>2020-06-18T20:59:05Z</time>
      </trkpt>
      <trkpt lat="51.229878930586" lon="4.461434499733">
        <ele>3.4</ele>
        <time>2020-06-18T20:59:15Z</time>
      </trkpt>
      <trkpt lat="51.22988530083" lon="4.461464842211">
        <ele>4.4</ele>
        <time>2020-06-18T20:59:17Z</time>
      </trkpt>
      <trkpt lat="51.229990242218" lon="4.461858120959">
        <ele>1.8</ele>
        <time>2020-06-18T20:59:49Z</time>
      </trkpt>
      <trkpt lat="51.230057800332" lon="4.462143943749">
        <ele>1.6</ele>
        <time>2020-06-18T21:00:13Z</time>
      </trkpt>
      <trkpt lat="51.230102894954" lon="4.462373104895">
        <ele>6</ele>
        <time>2020-06-18T21:00:36Z</time>
      </trkpt>
      <trkpt lat="51.230170788344" lon="4.462645684283">
        <ele>0</ele>
        <time>2020-06-18T21:01:22Z</time>
      </trkpt>
      <trkpt lat="51.230328284245" lon="4.463292012592">
        <ele>2.6</ele>
        <time>2020-06-18T21:02:16Z</time>
      </trkpt>
      <trkpt lat="51.230330463539" lon="4.463309614582">
        <ele>2.4</ele>
        <time>2020-06-18T21:02:17Z</time>
      </trkpt>
      <trkpt lat="51.230318142146" lon="4.46392166092">
        <ele>4.6</ele>
        <time>2020-06-18T21:02:55Z</time>
      </trkpt>
      <trkpt lat="51.230232479128" lon="4.464018220408">
        <ele>4.2</ele>
        <time>2020-06-18T21:03:12Z</time>
      </trkpt>
      <trkpt lat="51.230144636816" lon="4.464135231732">
        <ele>3.2</ele>
        <time>2020-06-18T21:03:29Z</time>
      </trkpt>
      <trkpt lat="51.229900974983" lon="4.464143278356">
        <ele>15</ele>
        <time>2020-06-18T21:05:18Z</time>
      </trkpt>
      <trkpt lat="51.229599058945" lon="4.464346790888">
        <ele>3</ele>
        <time>2020-06-18T21:06:04Z</time>
      </trkpt>
      <trkpt lat="51.229144424689" lon="4.46438937094">
        <ele>0</ele>
        <time>2020-06-18T21:06:56Z</time>
      </trkpt>
      <trkpt lat="51.22913679716" lon="4.464398171935">
        <ele>0</ele>
        <time>2020-06-18T21:06:57Z</time>
      </trkpt>
      <trkpt lat="51.228744859516" lon="4.464536138009">
        <ele>0</ele>
        <time>2020-06-18T21:08:50Z</time>
      </trkpt>
      <trkpt lat="51.22870010017" lon="4.46466178269">
        <ele>0</ele>
        <time>2020-06-18T21:09:08Z</time>
      </trkpt>
      <trkpt lat="51.228701189817" lon="4.464706709674">
        <ele>0</ele>
        <time>2020-06-18T21:09:11Z</time>
      </trkpt>
      <trkpt lat="51.228716193418" lon="4.465419422631">
        <ele>0</ele>
        <time>2020-06-18T21:09:58Z</time>
      </trkpt>
      <trkpt lat="51.228645282544" lon="4.465693426942">
        <ele>0</ele>
        <time>2020-06-18T21:10:22Z</time>
      </trkpt>
      <trkpt lat="51.228610749116" lon="4.465747406378">
        <ele>0</ele>
        <time>2020-06-18T21:10:27Z</time>
      </trkpt>
      <trkpt lat="51.228469849377" lon="4.46593164054">
        <ele>0</ele>
        <time>2020-06-18T21:11:00Z</time>
      </trkpt>
      <trkpt lat="51.228075983896" lon="4.466279405571">
        <ele>0</ele>
        <time>2020-06-18T21:11:42Z</time>
      </trkpt>
      <trkpt lat="51.227956793278" lon="4.466266748902">
        <ele>0</ele>
        <time>2020-06-18T21:11:53Z</time>
      </trkpt>
      <trkpt lat="51.227841374515" lon="4.466119227462">
        <ele>0</ele>
        <time>2020-06-18T21:12:18Z</time>
      </trkpt>
      <trkpt lat="51.227812792236" lon="4.465411208369">
        <ele>0</ele>
        <time>2020-06-18T21:13:05Z</time>
      </trkpt>
      <trkpt lat="51.227805499983" lon="4.465085403916">
        <ele>0.8</ele>
        <time>2020-06-18T21:13:28Z</time>
      </trkpt>
      <trkpt lat="51.227784209957" lon="4.464365314887">
        <ele>4.2</ele>
        <time>2020-06-18T21:14:08Z</time>
      </trkpt>
      <trkpt lat="51.227750682357" lon="4.463667856988">
        <ele>3.4</ele>
        <time>2020-06-18T21:14:47Z</time>
      </trkpt>
      <trkpt lat="51.227755124764" lon="4.463596107924">
        <ele>5</ele>
        <time>2020-06-18T21:14:55Z</time>
      </trkpt>
      <trkpt lat="51.227699720405" lon="4.463093948295">
        <ele>3.8</ele>
        <time>2020-06-18T21:15:27Z</time>
      </trkpt>
      <trkpt lat="51.227610872265" lon="4.462864451873">
        <ele>0</ele>
        <time>2020-06-18T21:15:47Z</time>
      </trkpt>
      <trkpt lat="51.22746712268" lon="4.462182165213">
        <ele>0</ele>
        <time>2020-06-18T21:16:27Z</time>
      </trkpt>
      <trkpt lat="51.227322702543" lon="4.461507254625">
        <ele>1.4</ele>
        <time>2020-06-18T21:17:09Z</time>
      </trkpt>
      <trkpt lat="51.227344914578" lon="4.461194777393">
        <ele>2.8</ele>
        <time>2020-06-18T21:17:48Z</time>
      </trkpt>
      <trkpt lat="51.227337873782" lon="4.461000820227">
        <ele>0</ele>
        <time>2020-06-18T21:18:02Z</time>
      </trkpt>
      <trkpt lat="51.227342483827" lon="4.46081616697">
        <ele>0</ele>
        <time>2020-06-18T21:18:16Z</time>
      </trkpt>
      <trkpt lat="51.227209965988" lon="4.460136981613">
        <ele>1</ele>
        <time>2020-06-18T21:19:05Z</time>
      </trkpt>
      <trkpt lat="51.227103767315" lon="4.459627445912">
        <ele>0</ele>
        <time>2020-06-18T21:19:48Z</time>
      </trkpt>
      <trkpt lat="51.22703042569" lon="4.459105002085">
        <ele>0.8</ele>
        <time>2020-06-18T21:20:31Z</time>
      </trkpt>
      <trkpt lat="51.227216000956" lon="4.458968544753">
        <ele>1.6</ele>
        <time>2020-06-18T21:20:52Z</time>
      </trkpt>
      <trkpt lat="51.2276414662" lon="4.458679453022">
        <ele>9.6</ele>
        <time>2020-06-18T21:21:36Z</time>
      </trkpt>
      <trkpt lat="51.228088975841" lon="4.458494464489">
        <ele>3.8</ele>
        <time>2020-06-18T21:22:12Z</time>
      </trkpt>
      <trkpt lat="51.228503628434" lon="4.458215766314">
        <ele>0</ele>
        <time>2020-06-18T21:22:53Z</time>
      </trkpt>
      <trkpt lat="51.228948874962" lon="4.458118284817">
        <ele>0.2</ele>
        <time>2020-06-18T21:23:35Z</time>
      </trkpt>
      <trkpt lat="51.229129756364" lon="4.458143598155">
        <ele>9.2</ele>
        <time>2020-06-18T21:24:06Z</time>
      </trkpt>
      <trkpt lat="51.229564609336" lon="4.457934888845">
        <ele>4.2</ele>
        <time>2020-06-18T21:24:53Z</time>
      </trkpt>
      <trkpt lat="51.229679609004" lon="4.457911168068">
        <ele>14</ele>
        <time>2020-06-18T21:25:38Z</time>
      </trkpt>
    </trkseg>
  </trk>
</gpx>